Terminal Aerodrome Forecast
Issued by NWS Wilmington, OH

Current Version | Previous Version | Graphics & Text | Print | Product List | Glossary On
Versions: 1 2 3 4 5 6 7 8 9 10 11 12 13 14 15 16
881
FTUS41 KILN 181135
TAFCMH
TAF
KCMH 181135Z 1812/1912 23006KT P6SM FEW010 SCT060
     FM181700 26011G17KT P6SM SCT035
     FM190000 28008KT P6SM FEW150
     FM191100 VRB03KT P6SM BKN070=

USA.gov is the U.S. government's official web portal to all federal, state and local government web resources and services.